createdAt,value
2023-05-01T00:02:15.634Z,9.76
2023-05-01T00:04:42.744Z,9.79
2023-05-01T00:07:09.935Z,9.79
2023-05-01T00:09:38.287Z,9.71
2023-05-01T00:12:05.332Z,9.64
2023-05-01T00:14:32.276Z,9.65
2023-05-01T00:16:59.297Z,9.66
2023-05-01T00:19:26.347Z,9.63
2023-05-01T00:21:53.524Z,9.60
2023-05-01T00:24:20.574Z,9.63
2023-05-01T00:26:48.908Z,9.61
2023-05-01T00:29:17.039Z,9.63
2023-05-01T00:31:44.138Z,9.61
2023-05-01T00:34:11.804Z,9.53
2023-05-01T00:36:38.862Z,9.35
2023-05-01T00:39:07.913Z,9.24
2023-05-01T00:41:35.142Z,9.26
2023-05-01T00:44:03.521Z,9.27
2023-05-01T00:46:30.950Z,9.16
2023-05-01T00:48:58.260Z,9.08
2023-05-01T00:51:27.393Z,9.08
2023-05-01T00:53:54.545Z,9.10
2023-05-01T00:56:21.596Z,9.05
2023-05-01T00:58:53.872Z,8.99
2023-05-01T01:01:22.958Z,8.84
2023-05-01T01:03:54.743Z,8.67
2023-05-01T01:06:25.554Z,8.60
2023-05-01T01:09:00.960Z,8.61
2023-05-01T01:11:34.775Z,8.56
2023-05-01T01:14:09.225Z,8.48
2023-05-01T01:16:42.436Z,8.42
2023-05-01T01:19:26.208Z,8.39
2023-05-01T01:21:56.707Z,8.38
2023-05-01T01:24:36.450Z,8.39
2023-05-01T01:27:30.301Z,8.35
2023-05-01T01:30:12.269Z,8.34
2023-05-01T01:33:01.366Z,8.36
2023-05-01T01:35:31.641Z,8.37
2023-05-01T01:38:03.543Z,8.40
2023-05-01T01:40:35.567Z,8.41
2023-05-01T01:43:04.019Z,8.29
2023-05-01T01:45:36.611Z,8.16
2023-05-01T01:48:04.879Z,8.08
2023-05-01T01:50:34.127Z,8.10
2023-05-01T01:53:02.027Z,8.07
2023-05-01T01:55:31.001Z,8.06
2023-05-01T01:57:59.125Z,8.06
2023-05-01T02:00:26.440Z,8.03
2023-05-01T02:02:54.066Z,8.04
2023-05-01T02:05:22.081Z,8.03
2023-05-01T02:07:51.582Z,8.06
2023-05-01T02:10:19.193Z,8.06
2023-05-01T02:12:47.142Z,8.05
2023-05-01T02:15:15.817Z,8.01
2023-05-01T02:17:42.587Z,7.96
2023-05-01T02:20:11.145Z,7.91
2023-05-01T02:22:38.066Z,7.90
2023-05-01T02:25:07.672Z,7.90
2023-05-01T02:27:36.527Z,7.84
2023-05-01T02:30:05.603Z,7.87
2023-05-01T02:32:32.953Z,7.93
2023-05-01T02:35:00.519Z,7.91
2023-05-01T02:37:29.417Z,7.89
2023-05-01T02:39:56.843Z,7.82
2023-05-01T02:42:26.864Z,7.79
2023-05-01T02:44:58.008Z,7.73
2023-05-01T02:47:27.837Z,7.68
2023-05-01T02:49:55.526Z,7.67
2023-05-01T02:52:25.789Z,7.71
2023-05-01T02:55:04.060Z,7.61
2023-05-01T02:57:32.851Z,7.56
2023-05-01T02:59:59.939Z,7.62
2023-05-01T03:02:26.959Z,7.65
2023-05-01T03:04:53.933Z,7.59
2023-05-01T03:07:21.734Z,7.63
2023-05-01T03:09:48.729Z,7.56
2023-05-01T03:12:15.634Z,7.49
2023-05-01T03:14:44.016Z,7.43
2023-05-01T03:17:10.960Z,7.37
2023-05-01T03:19:37.953Z,7.46
2023-05-01T03:22:05.808Z,7.54
2023-05-01T03:24:32.740Z,7.62
2023-05-01T03:26:59.746Z,7.60
2023-05-01T03:29:27.826Z,7.64
2023-05-01T03:31:57.886Z,7.54
2023-05-01T03:34:25.008Z,7.44
2023-05-01T03:36:52.156Z,7.37
2023-05-01T03:39:19.293Z,7.23
2023-05-01T03:42:05.304Z,7.15
2023-05-01T03:44:38.116Z,7.13
2023-05-01T03:47:06.649Z,7.19
2023-05-01T03:49:38.776Z,7.13
2023-05-01T03:52:06.400Z,7.15
2023-05-01T03:54:33.520Z,7.24
2023-05-01T03:57:11.090Z,7.23
2023-05-01T03:59:38.153Z,7.28
2023-05-01T04:02:07.154Z,7.38
2023-05-01T04:04:36.677Z,7.49
2023-05-01T04:07:03.873Z,7.59
2023-05-01T04:09:30.966Z,7.65
2023-05-01T04:11:58.624Z,7.52
2023-05-01T04:14:25.792Z,7.56
2023-05-01T04:16:52.736Z,7.63
2023-05-01T04:19:21.116Z,7.76
2023-05-01T04:21:52.378Z,7.90
2023-05-01T04:24:19.564Z,8.02
2023-05-01T04:26:47.790Z,8.16
2023-05-01T04:29:14.879Z,8.26
2023-05-01T04:31:43.354Z,8.39
2023-05-01T04:34:10.377Z,8.50
2023-05-01T04:36:39.673Z,8.56
2023-05-01T04:39:06.668Z,8.71
2023-05-01T04:41:33.835Z,8.87
2023-05-01T04:44:01.113Z,9.03
2023-05-01T04:46:28.358Z,9.16
2023-05-01T04:48:55.518Z,9.33
2023-05-01T04:51:22.588Z,9.47
2023-05-01T04:53:51.887Z,9.61
2023-05-01T04:56:22.721Z,9.70
2023-05-01T04:58:53.210Z,9.75
2023-05-01T05:01:22.698Z,9.89
2023-05-01T05:03:50.363Z,10.04
2023-05-01T05:06:17.841Z,10.16
2023-05-01T05:08:44.765Z,10.29
2023-05-01T05:11:13.396Z,10.39
2023-05-01T05:13:56.947Z,10.54
2023-05-01T05:16:24.157Z,10.68
2023-05-01T05:18:51.337Z,10.76
2023-05-01T05:21:19.324Z,10.89
2023-05-01T05:23:53.120Z,11.00
2023-05-01T05:26:21.980Z,11.12
2023-05-01T05:28:50.968Z,11.19
2023-05-01T05:31:17.988Z,11.25
2023-05-01T05:33:45.016Z,11.37
2023-05-01T05:36:13.808Z,11.49
2023-05-01T05:38:43.415Z,11.60
2023-05-01T05:41:14.329Z,11.70
2023-05-01T05:43:43.175Z,11.81
2023-05-01T05:46:09.944Z,11.85
2023-05-01T05:48:38.065Z,11.87
2023-05-01T05:51:05.842Z,11.93
2023-05-01T05:53:32.943Z,11.98
2023-05-01T05:55:59.892Z,12.03
2023-05-01T05:58:27.534Z,12.11
2023-05-01T06:01:15.157Z,12.23
2023-05-01T06:03:42.269Z,12.39
2023-05-01T06:06:09.692Z,12.46
2023-05-01T06:08:37.837Z,12.57
2023-05-01T06:11:09.205Z,12.71
2023-05-01T06:13:38.322Z,12.84
2023-05-01T06:16:07.466Z,12.93
2023-05-01T06:18:36.011Z,13.03
2023-05-01T06:21:02.996Z,13.10
2023-05-01T06:23:30.479Z,13.20
2023-05-01T06:26:21.548Z,13.41
2023-05-01T06:28:48.466Z,13.56
2023-05-01T06:31:15.710Z,13.69
2023-05-01T06:33:50.341Z,13.82
2023-05-01T06:36:26.022Z,13.81
2023-05-01T06:38:53.191Z,13.82
2023-05-01T06:41:22.153Z,14.01
2023-05-01T06:43:49.217Z,14.15
2023-05-01T06:46:17.148Z,14.25
2023-05-01T06:48:44.149Z,14.37
2023-05-01T06:51:16.229Z,14.56
2023-05-01T06:53:43.332Z,14.77
2023-05-01T06:56:10.356Z,14.87
2023-05-01T06:58:37.378Z,14.82
2023-05-01T07:01:04.725Z,14.94
2023-05-01T07:03:31.750Z,15.05
2023-05-01T07:05:58.790Z,15.18
2023-05-01T07:08:28.339Z,15.32
2023-05-01T07:10:55.433Z,15.52
2023-05-01T07:13:22.464Z,15.76
2023-05-01T07:15:50.715Z,15.94
2023-05-01T07:18:18.756Z,16.13
2023-05-01T07:20:45.733Z,16.28
2023-05-01T07:23:12.841Z,16.42
2023-05-01T07:25:45.239Z,16.59
2023-05-01T07:28:12.184Z,16.74
2023-05-01T07:30:39.691Z,16.92
2023-05-01T07:33:06.713Z,17.07
2023-05-01T07:35:33.823Z,17.18
2023-05-01T07:38:00.846Z,17.27
2023-05-01T07:40:27.812Z,17.24
2023-05-01T07:42:56.186Z,17.22
2023-05-01T07:45:23.190Z,17.41
2023-05-01T07:47:50.219Z,17.52
2023-05-01T07:50:17.396Z,17.68
2023-05-01T07:52:44.581Z,17.68
2023-05-01T07:55:11.738Z,17.81
2023-05-01T07:57:39.295Z,18.06
2023-05-01T08:00:09.284Z,18.30
2023-05-01T08:02:42.244Z,18.58
2023-05-01T09:09:47.157Z,22.56
2023-05-01T09:12:21.009Z,22.69
2023-05-01T09:14:47.929Z,22.44
2023-05-01T09:17:15.737Z,22.58
2023-05-01T09:19:42.741Z,22.71
2023-05-01T09:22:09.853Z,22.93
2023-05-01T09:24:36.953Z,23.11
2023-05-01T09:27:06.480Z,23.27
2023-05-01T09:29:41.171Z,23.38
2023-05-01T09:32:16.281Z,23.45
2023-05-01T09:34:43.719Z,23.47
2023-05-01T09:37:13.706Z,23.60
2023-05-01T09:39:40.848Z,23.59
2023-05-01T09:42:09.712Z,23.59
2023-05-01T09:44:43.500Z,23.90
2023-05-01T09:47:10.591Z,23.88
2023-05-01T09:49:45.650Z,24.05
2023-05-01T09:52:14.648Z,23.96
2023-05-01T09:54:41.888Z,23.76
2023-05-01T09:57:10.222Z,23.60
2023-05-01T09:59:37.286Z,23.93
2023-05-01T10:02:04.295Z,24.28
2023-05-01T10:04:32.171Z,24.46
2023-05-01T10:06:59.418Z,24.75
2023-05-01T10:09:29.925Z,24.88
2023-05-01T10:11:57.878Z,24.86
2023-05-01T10:14:28.319Z,24.70
2023-05-01T10:16:57.952Z,24.33
2023-05-01T10:19:25.457Z,23.88
2023-05-01T10:21:53.505Z,23.65
2023-05-01T10:24:20.727Z,23.20
2023-05-01T10:26:49.068Z,23.02
2023-05-01T10:29:16.163Z,22.78
2023-05-01T10:31:44.913Z,22.55
2023-05-01T10:34:12.533Z,22.37
2023-05-01T10:36:43.934Z,22.14
2023-05-01T10:39:32.416Z,22.03
2023-05-01T10:42:08.563Z,21.95
2023-05-01T10:44:35.987Z,21.87
2023-05-01T10:47:41.583Z,21.78
2023-05-01T10:50:11.587Z,21.65
2023-05-01T10:53:16.345Z,21.38
2023-05-01T10:55:44.750Z,21.27
2023-05-01T10:58:12.112Z,21.02
2023-05-01T11:00:39.335Z,20.92
2023-05-01T11:03:36.705Z,20.63
2023-05-01T11:06:08.929Z,20.79
2023-05-01T11:08:38.279Z,20.82
2023-05-01T11:11:42.446Z,20.77
2023-05-01T11:14:11.016Z,20.67
2023-05-01T11:16:42.713Z,20.62
2023-05-01T11:19:11.238Z,20.72
2023-05-01T11:21:40.710Z,20.85
2023-05-01T11:24:08.242Z,20.92
2023-05-01T11:26:38.585Z,21.05
2023-05-01T11:29:06.228Z,21.61
2023-05-01T11:31:33.532Z,22.15
2023-05-01T11:34:01.012Z,22.07
2023-05-01T11:36:28.949Z,22.01
2023-05-01T11:38:57.676Z,21.98
2023-05-01T11:41:25.410Z,21.93
2023-05-01T11:43:54.011Z,22.06
2023-05-01T11:46:24.613Z,22.08
2023-05-01T11:48:51.654Z,21.77
2023-05-01T11:51:19.201Z,21.49
2023-05-01T11:54:00.765Z,21.51
2023-05-01T11:56:28.122Z,21.15
2023-05-01T11:58:56.221Z,20.68
2023-05-01T12:01:33.943Z,20.20
2023-05-01T12:04:01.285Z,20.01
2023-05-01T12:06:36.972Z,19.71
2023-05-01T12:09:05.964Z,19.53
2023-05-01T12:11:32.904Z,19.64
2023-05-01T12:13:59.860Z,19.54
2023-05-01T12:16:28.355Z,19.27
2023-05-01T12:18:55.575Z,18.50
2023-05-01T12:21:22.892Z,18.40
2023-05-01T12:23:54.691Z,18.20
2023-05-01T12:26:26.337Z,17.90
2023-05-01T12:28:54.412Z,17.85
2023-05-01T12:31:21.266Z,17.69
2023-05-01T12:33:53.668Z,17.70
2023-05-01T12:36:25.329Z,17.91
2023-05-01T12:38:56.541Z,17.94
2023-05-01T12:41:37.289Z,18.02
2023-05-01T12:44:15.162Z,18.13
2023-05-01T12:46:42.328Z,18.42
2023-05-01T12:49:09.483Z,18.38
2023-05-01T12:51:36.729Z,18.28
2023-05-01T12:54:04.405Z,18.25
2023-05-01T12:56:31.884Z,18.27
2023-05-01T12:59:00.207Z,18.38
2023-05-01T13:01:28.562Z,18.52
2023-05-01T13:03:58.191Z,18.84
2023-05-01T13:06:33.292Z,19.23
2023-05-01T13:09:09.358Z,19.71
2023-05-01T13:11:36.516Z,20.42
2023-05-01T13:14:09.078Z,21.17
2023-05-01T13:16:45.365Z,21.60
2023-05-01T13:19:13.383Z,21.65
2023-05-01T13:21:48.302Z,21.81
2023-05-01T13:24:15.450Z,21.71
2023-05-01T13:26:42.399Z,21.88
2023-05-01T13:29:14.428Z,21.94
2023-05-01T13:31:44.103Z,22.28
2023-05-01T13:34:11.283Z,22.19
2023-05-01T13:36:40.236Z,21.74
2023-05-01T13:39:07.208Z,21.50
2023-05-01T13:41:35.433Z,21.41
2023-05-01T13:44:02.344Z,21.35
2023-05-01T13:46:30.958Z,21.09
2023-05-01T13:49:04.831Z,20.46
2023-05-01T13:51:32.654Z,20.28
2023-05-01T13:53:59.600Z,20.49
2023-05-01T13:56:26.987Z,20.58
2023-05-01T13:58:53.959Z,20.62
2023-05-01T14:01:22.565Z,20.86
2023-05-01T14:03:51.774Z,20.89
2023-05-01T14:06:20.609Z,20.77
2023-05-01T14:08:49.275Z,20.59
2023-05-01T14:11:16.348Z,20.28
2023-05-01T14:13:45.620Z,20.09
2023-05-01T14:16:19.938Z,20.04
2023-05-01T14:18:48.208Z,19.80
2023-05-01T14:21:17.932Z,19.84
2023-05-01T14:23:45.298Z,19.75
2023-05-01T14:26:17.712Z,19.59
2023-05-01T14:28:46.285Z,19.99
2023-05-01T14:31:17.463Z,20.45
2023-05-01T14:33:44.674Z,20.76
2023-05-01T14:36:12.786Z,21.11
2023-05-01T14:38:46.693Z,21.57
2023-05-01T14:41:14.781Z,22.01
2023-05-01T14:43:44.439Z,22.28
2023-05-01T14:46:12.679Z,22.66
2023-05-01T14:48:41.866Z,22.82
2023-05-01T14:51:11.190Z,23.09
2023-05-01T14:53:43.991Z,23.24
2023-05-01T14:56:11.915Z,23.20
2023-05-01T14:58:39.068Z,23.38
2023-05-01T15:01:06.353Z,23.29
2023-05-01T15:03:36.283Z,23.24
2023-05-01T15:06:04.266Z,23.14
2023-05-01T15:08:32.542Z,23.39
2023-05-01T15:11:01.054Z,23.39
2023-05-01T15:13:28.841Z,23.50
2023-05-01T15:15:56.203Z,23.64
2023-05-01T15:18:23.456Z,23.65
2023-05-01T15:20:50.488Z,23.75
2023-05-01T15:23:17.866Z,23.05
2023-05-01T15:25:44.874Z,23.18
2023-05-01T15:28:13.655Z,23.20
2023-05-01T15:30:44.387Z,22.89
2023-05-01T15:33:11.534Z,21.90
2023-05-01T15:35:38.764Z,21.39
2023-05-01T15:38:05.783Z,21.76
2023-05-01T15:40:33.607Z,21.17
2023-05-01T15:43:01.374Z,21.27
2023-05-01T15:45:29.897Z,21.33
2023-05-01T15:47:57.101Z,21.20
2023-05-01T15:50:24.184Z,21.09
2023-05-01T15:52:52.261Z,20.45
2023-05-01T15:55:19.596Z,20.28
2023-05-01T15:57:47.465Z,20.37
2023-05-01T16:00:14.798Z,20.38
2023-05-01T16:02:44.442Z,20.44
2023-05-01T16:05:13.656Z,20.11
2023-05-01T16:07:40.706Z,19.76
2023-05-01T16:10:08.969Z,19.49
2023-05-01T16:12:36.011Z,19.27
2023-05-01T16:15:04.721Z,19.34
2023-05-01T16:17:33.709Z,19.29
2023-05-01T16:20:02.904Z,18.93
2023-05-01T16:22:32.795Z,18.85
2023-05-01T16:25:01.297Z,18.93
2023-05-01T16:27:28.308Z,18.59
2023-05-01T16:29:55.291Z,18.43
2023-05-01T16:32:24.248Z,18.27
2023-05-01T16:34:51.325Z,18.29
2023-05-01T16:37:21.398Z,18.21
2023-05-01T16:39:48.689Z,18.04
2023-05-01T16:42:15.704Z,17.89
2023-05-01T16:44:42.692Z,17.88
2023-05-01T16:47:11.982Z,17.83
2023-05-01T16:49:42.154Z,17.83
2023-05-01T16:52:13.504Z,17.54
2023-05-01T16:54:41.902Z,17.44
2023-05-01T16:57:08.957Z,17.41
2023-05-01T16:59:37.373Z,17.15
2023-05-01T17:02:05.898Z,16.98
2023-05-01T17:04:33.581Z,16.87
2023-05-01T17:07:00.645Z,16.75
2023-05-01T17:09:27.707Z,16.56
2023-05-01T17:11:57.551Z,16.37
2023-05-01T17:14:24.638Z,16.20
2023-05-01T17:16:53.026Z,16.13
2023-05-01T17:19:20.470Z,16.04
2023-05-01T17:21:47.394Z,15.94
2023-05-01T17:24:14.351Z,15.87
2023-05-01T17:26:41.447Z,15.78
2023-05-01T17:29:09.803Z,15.67
2023-05-01T17:31:36.856Z,15.60
2023-05-01T17:34:03.830Z,15.54
2023-05-01T17:36:31.788Z,15.50
2023-05-01T17:39:01.328Z,15.44
2023-05-01T17:41:28.418Z,15.43
2023-05-01T17:43:55.479Z,15.36
2023-05-01T17:46:23.923Z,15.34
2023-05-01T17:48:50.933Z,15.28
2023-05-01T17:51:18.221Z,15.27
2023-05-01T17:53:45.273Z,15.21
2023-05-01T17:56:12.353Z,15.20
2023-05-01T17:58:39.288Z,15.10
2023-05-01T18:01:06.336Z,15.09
2023-05-01T18:03:34.971Z,15.04
2023-05-01T18:06:02.703Z,15.05
2023-05-01T18:08:29.842Z,14.99
2023-05-01T18:10:56.758Z,14.97
2023-05-01T18:13:28.599Z,14.92
2023-05-01T18:15:55.917Z,14.92
2023-05-01T18:18:23.027Z,14.92
2023-05-01T18:20:51.829Z,14.84
2023-05-01T18:23:19.030Z,14.84
2023-05-01T18:25:46.470Z,14.83
2023-05-01T18:28:16.507Z,14.82
2023-05-01T18:30:43.787Z,14.75
2023-05-01T18:33:11.222Z,14.77
2023-05-01T18:35:39.909Z,14.71
2023-05-01T18:38:08.331Z,14.68
2023-05-01T18:40:35.948Z,14.65
2023-05-01T18:43:02.949Z,14.60
2023-05-01T18:45:30.926Z,14.57
2023-05-01T18:48:00.629Z,14.55
2023-05-01T18:50:27.721Z,14.53
2023-05-01T18:52:54.899Z,14.51
2023-05-01T18:55:23.289Z,14.52
2023-05-01T18:57:50.289Z,14.51
2023-05-01T19:00:20.448Z,14.47
2023-05-01T19:02:51.669Z,14.48
2023-05-01T19:05:19.394Z,14.40
2023-05-01T19:07:46.679Z,14.42
2023-05-01T19:10:13.860Z,14.40
2023-05-01T19:12:42.400Z,14.31
2023-05-01T19:15:10.087Z,14.31
2023-05-01T19:17:37.374Z,14.27
2023-05-01T19:20:06.735Z,14.28
2023-05-01T19:22:33.724Z,14.30
2023-05-01T19:25:00.776Z,14.28
2023-05-01T19:27:27.798Z,14.23
2023-05-01T19:29:56.683Z,14.24
2023-05-01T19:32:23.975Z,14.27
2023-05-01T19:34:51.090Z,14.24
2023-05-01T19:37:18.129Z,14.16
2023-05-01T19:39:45.221Z,14.03
2023-05-01T19:42:12.208Z,13.92
2023-05-01T19:44:39.816Z,13.76
2023-05-01T19:47:08.174Z,13.66
2023-05-01T19:49:34.898Z,13.73
2023-05-01T19:52:01.833Z,13.72
2023-05-01T19:54:28.821Z,13.70
2023-05-01T19:56:56.155Z,13.65
2023-05-01T19:59:23.198Z,13.64
2023-05-01T20:01:50.333Z,13.64
2023-05-01T20:04:19.040Z,13.66
2023-05-01T20:06:46.895Z,13.67
2023-05-01T20:09:13.933Z,13.69
2023-05-01T20:11:41.135Z,13.73
2023-05-01T20:14:08.180Z,13.74
2023-05-01T20:16:36.105Z,13.71
2023-05-01T20:19:03.066Z,13.78
2023-05-01T20:21:31.625Z,13.72
2023-05-01T20:23:58.663Z,13.73
2023-05-01T20:26:25.926Z,13.73
2023-05-01T20:28:53.709Z,13.76
2023-05-01T20:31:21.386Z,13.82
2023-05-01T20:33:48.544Z,13.82
2023-05-01T20:36:17.302Z,13.78
2023-05-01T20:38:47.546Z,13.66
2023-05-01T20:41:14.863Z,13.48
2023-05-01T20:43:41.781Z,13.36
2023-05-01T20:46:08.857Z,13.35
2023-05-01T20:48:35.830Z,13.32
2023-05-01T20:51:02.795Z,13.27
2023-05-01T20:53:29.859Z,13.21
2023-05-01T20:55:58.224Z,13.13
2023-05-01T20:58:24.938Z,13.13
2023-05-01T21:00:53.888Z,13.02
2023-05-01T21:03:21.415Z,12.96
2023-05-01T21:05:48.458Z,12.90
2023-05-01T21:08:15.545Z,12.84
2023-05-01T21:10:42.545Z,12.70
2023-05-01T21:13:11.002Z,12.63
2023-05-01T21:15:40.956Z,12.61
2023-05-01T21:18:08.898Z,12.54
2023-05-01T21:20:35.881Z,12.51
2023-05-01T21:23:02.866Z,12.51
2023-05-01T21:25:31.748Z,12.51
2023-05-01T21:28:03.634Z,12.45
2023-05-01T21:30:35.070Z,12.45
2023-05-01T21:33:03.384Z,12.38
2023-05-01T21:35:30.555Z,12.34
2023-05-01T21:37:57.673Z,12.26
2023-05-01T21:40:25.103Z,12.24
2023-05-01T21:42:53.296Z,12.27
2023-05-01T21:45:20.893Z,12.23
2023-05-01T21:47:53.559Z,12.19
2023-05-01T21:50:21.507Z,12.15
2023-05-01T21:52:49.312Z,12.14
2023-05-01T21:55:18.014Z,12.17
2023-05-01T21:57:45.109Z,12.12
2023-05-01T22:00:13.029Z,12.11
2023-05-01T22:02:42.077Z,12.08
2023-05-01T22:05:11.768Z,12.05
2023-05-01T22:07:40.184Z,11.98
2023-05-01T22:10:08.168Z,11.94
2023-05-01T22:12:35.190Z,11.91
2023-05-01T22:15:02.402Z,11.88
2023-05-01T22:17:29.446Z,11.90
2023-05-01T22:19:56.487Z,11.94
2023-05-01T22:22:24.903Z,11.93
2023-05-01T22:24:51.847Z,11.91
2023-05-01T22:27:18.935Z,11.80
2023-05-01T22:29:45.911Z,11.73
2023-05-01T22:32:13.058Z,11.69
2023-05-01T22:34:40.242Z,11.60
2023-05-01T22:37:07.373Z,11.51
2023-05-01T22:39:36.410Z,11.52
2023-05-01T22:42:03.766Z,11.41
2023-05-01T22:44:30.865Z,11.33
2023-05-01T22:46:59.490Z,11.27
2023-05-01T22:49:27.969Z,11.21
2023-05-01T22:51:55.142Z,11.16
2023-05-01T22:54:22.246Z,11.11
2023-05-01T22:56:51.463Z,11.03
2023-05-01T22:59:19.048Z,10.94
2023-05-01T23:01:46.470Z,10.94
2023-05-01T23:04:14.016Z,10.89
2023-05-01T23:06:41.372Z,10.83
2023-05-01T23:09:08.509Z,10.75
2023-05-01T23:11:35.562Z,10.76
2023-05-01T23:14:03.916Z,10.68
2023-05-01T23:16:37.738Z,10.68
2023-05-01T23:19:05.157Z,10.72
2023-05-01T23:21:33.915Z,10.70
2023-05-01T23:24:01.548Z,10.69
2023-05-01T23:26:33.028Z,10.71
2023-05-01T23:29:00.275Z,10.77
2023-05-01T23:31:29.268Z,10.77
2023-05-01T23:33:56.749Z,10.74
2023-05-01T23:36:23.757Z,10.77
2023-05-01T23:38:50.720Z,10.76
2023-05-01T23:41:17.715Z,10.73
2023-05-01T23:43:47.979Z,10.69
2023-05-01T23:46:15.646Z,10.63
2023-05-01T23:48:44.004Z,10.60
2023-05-01T23:51:11.103Z,10.60
2023-05-01T23:53:38.126Z,10.65
2023-05-01T23:56:05.898Z,10.66
2023-05-01T23:58:32.818Z,10.68
